sensor_id;sensor_type;location;lat;lon;timestamp;pressure;altitude;pressure_sealevel;temperature;humidity
50652;BME280;66928;52.086;5.240;2023-03-18T06:34:42;100801.0;;;12.98;81.83
50652;BME280;66928;52.086;5.240;2023-03-18T06:36:19;100798.0;;;13.01;81.8
50652;BME280;66928;52.086;5.240;2023-03-18T06:37:57;100807.0;;;13.15;81.23
50652;BME280;66928;52.086;5.240;2023-03-18T06:41:09;100811.0;;;13.13;81.41
50652;BME280;66928;52.086;5.240;2023-03-18T06:42:46;100809.0;;;13.06;81.87
50652;BME280;66928;52.086;5.240;2023-03-18T06:44:22;100805.0;;;13.16;81.41
50652;BME280;66928;52.086;5.240;2023-03-18T06:47:35;100799.0;;;13.11;81.66
50652;BME280;66928;52.086;5.240;2023-03-18T06:49:13;100799.0;;;13.13;81.72
50652;BME280;66928;52.086;5.240;2023-03-18T06:50:49;100803.0;;;13.04;82.11
50652;BME280;66928;52.086;5.240;2023-03-18T06:54:02;100808.0;;;13.1;81.96
50652;BME280;66928;52.086;5.240;2023-03-18T06:55:38;100811.0;;;13.07;82.14
50652;BME280;66928;52.086;5.240;2023-03-18T06:57:14;100816.0;;;13.08;81.98
50652;BME280;66928;52.086;5.240;2023-03-18T06:58:50;100820.0;;;13.04;82.27
50652;BME280;66928;52.086;5.240;2023-03-18T07:02:03;100821.0;;;13.12;82.02
50652;BME280;66928;52.086;5.240;2023-03-18T07:03:39;100822.0;;;13.11;82.27
50652;BME280;66928;52.086;5.240;2023-03-18T07:05:16;100823.0;;;13.15;82.05
50652;BME280;66928;52.086;5.240;2023-03-18T07:08:29;100832.0;;;13.07;82.43
50652;BME280;66928;52.086;5.240;2023-03-18T07:10:16;100833.0;;;13.13;82.18
50652;BME280;66928;52.086;5.240;2023-03-18T07:11:53;100835.0;;;13.1;82.3
50652;BME280;66928;52.086;5.240;2023-03-18T07:13:29;100837.0;;;13.24;81.77
50652;BME280;66928;52.086;5.240;2023-03-18T07:16:43;100839.0;;;13.3;81.69
50652;BME280;66928;52.086;5.240;2023-03-18T07:18:18;100841.0;;;13.3;81.81
50652;BME280;66928;52.086;5.240;2023-03-18T07:19:55;100842.0;;;13.3;81.83
50652;BME280;66928;52.086;5.240;2023-03-18T07:23:07;100838.0;;;13.31;81.87
50652;BME280;66928;52.086;5.240;2023-03-18T07:24:44;100838.0;;;13.34;81.75
50652;BME280;66928;52.086;5.240;2023-03-18T07:26:20;100842.0;;;13.33;81.67
50652;BME280;66928;52.086;5.240;2023-03-18T07:29:35;100845.0;;;13.37;81.52
50652;BME280;66928;52.086;5.240;2023-03-18T07:31:10;100842.0;;;13.35;81.75
50652;BME280;66928;52.086;5.240;2023-03-18T07:32:47;100848.0;;;13.35;81.96
50652;BME280;66928;52.086;5.240;2023-03-18T07:34:23;100857.0;;;13.33;82.0
50652;BME280;66928;52.086;5.240;2023-03-18T07:37:35;100857.0;;;13.41;81.69
50652;BME280;66928;52.086;5.240;2023-03-18T07:39:11;100859.0;;;13.42;81.5
50652;BME280;66928;52.086;5.240;2023-03-18T07:40:49;100861.0;;;13.44;81.62
50652;BME280;66928;52.086;5.240;2023-03-18T07:44:02;100861.0;;;13.44;81.62
50652;BME280;66928;52.086;5.240;2023-03-18T07:45:39;100860.0;;;13.45;81.62
50652;BME280;66928;52.086;5.240;2023-03-18T07:47:15;100861.0;;;13.4;81.84
50652;BME280;66928;52.086;5.240;2023-03-18T07:50:27;100865.0;;;13.51;81.75
50652;BME280;66928;52.086;5.240;2023-03-18T07:52:03;100864.0;;;13.62;81.05
50652;BME280;66928;52.086;5.240;2023-03-18T07:53:39;100862.0;;;13.62;80.88
50652;BME280;66928;52.086;5.240;2023-03-18T07:56:51;100864.0;;;13.66;80.72
50652;BME280;66928;52.086;5.240;2023-03-18T07:58:28;100866.0;;;13.7;80.73
50652;BME280;66928;52.086;5.240;2023-03-18T08:00:04;100871.0;;;13.79;80.36
50652;BME280;66928;52.086;5.240;2023-03-18T08:01:42;100868.0;;;13.8;80.33
50652;BME280;66928;52.086;5.240;2023-03-18T08:04:54;100873.0;;;13.8;80.2
50652;BME280;66928;52.086;5.240;2023-03-18T08:06:30;100877.0;;;13.83;80.03
50652;BME280;66928;52.086;5.240;2023-03-18T08:08:07;100875.0;;;13.82;79.92
50652;BME280;66928;52.086;5.240;2023-03-18T08:11:18;100875.0;;;13.87;79.99
50652;BME280;66928;52.086;5.240;2023-03-18T08:12:55;100871.0;;;13.94;79.83
50652;BME280;66928;52.086;5.240;2023-03-18T08:14:32;100871.0;;;13.94;79.88
50652;BME280;66928;52.086;5.240;2023-03-18T08:17:44;100871.0;;;13.94;79.91
50652;BME280;66928;52.086;5.240;2023-03-18T08:19:20;100870.0;;;14.0;80.13
50652;BME280;66928;52.086;5.240;2023-03-18T08:20:56;100863.0;;;13.94;79.99
50652;BME280;66928;52.086;5.240;2023-03-18T08:22:32;100864.0;;;14.03;79.2
50652;BME280;66928;52.086;5.240;2023-03-18T08:25:47;100867.0;;;14.08;79.16
50652;BME280;66928;52.086;5.240;2023-03-18T08:27:24;100862.0;;;13.99;79.3
50652;BME280;66928;52.086;5.240;2023-03-18T08:29:00;100863.0;;;14.09;78.77
50652;BME280;66928;52.086;5.240;2023-03-18T08:32:14;100860.0;;;14.13;78.69
50652;BME280;66928;52.086;5.240;2023-03-18T08:33:51;100862.0;;;14.16;78.47
50652;BME280;66928;52.086;5.240;2023-03-18T08:35:27;100857.0;;;14.22;77.64
50652;BME280;66928;52.086;5.240;2023-03-18T08:38:40;100857.0;;;14.19;77.95
50652;BME280;66928;52.086;5.240;2023-03-18T08:40:17;100852.0;;;14.2;77.98
50652;BME280;66928;52.086;5.240;2023-03-18T08:41:54;100858.0;;;14.19;78.08
50652;BME280;66928;52.086;5.240;2023-03-18T08:43:30;100857.0;;;14.23;77.47
50652;BME280;66928;52.086;5.240;2023-03-18T08:46:43;100860.0;;;14.22;77.11
50652;BME280;66928;52.086;5.240;2023-03-18T08:48:20;100861.0;;;14.18;76.97
50652;BME280;66928;52.086;5.240;2023-03-18T08:49:57;100862.0;;;14.22;76.55
50652;BME280;66928;52.086;5.240;2023-03-18T08:53:09;100859.0;;;14.16;76.67
50652;BME280;66928;52.086;5.240;2023-03-18T08:54:46;100865.0;;;14.27;76.56
50652;BME280;66928;52.086;5.240;2023-03-18T08:56:22;100866.0;;;14.23;77.05
50652;BME280;66928;52.086;5.240;2023-03-18T08:59:34;100869.0;;;14.27;77.3
50652;BME280;66928;52.086;5.240;2023-03-18T09:01:10;100873.0;;;14.27;77.91
50652;BME280;66928;52.086;5.240;2023-03-18T09:02:47;100877.0;;;14.35;78.16
50652;BME280;66928;52.086;5.240;2023-03-18T09:04:24;100878.0;;;14.32;78.14
50652;BME280;66928;52.086;5.240;2023-03-18T09:07:37;100876.0;;;14.54;77.47
50652;BME280;66928;52.086;5.240;2023-03-18T09:09:13;100875.0;;;14.45;76.94
50652;BME280;66928;52.086;5.240;2023-03-18T09:10:50;100880.0;;;14.59;76.41
50652;BME280;66928;52.086;5.240;2023-03-18T09:14:03;100881.0;;;14.61;76.44
50652;BME280;66928;52.086;5.240;2023-03-18T09:15:40;100884.0;;;14.72;76.33
50652;BME280;66928;52.086;5.240;2023-03-18T09:17:16;100883.0;;;14.67;76.87
50652;BME280;66928;52.086;5.240;2023-03-18T09:20:29;100884.0;;;14.64;76.74
50652;BME280;66928;52.086;5.240;2023-03-18T09:22:05;100892.0;;;14.73;76.22
50652;BME280;66928;52.086;5.240;2023-03-18T09:23:42;100893.0;;;14.8;76.24
50652;BME280;66928;52.086;5.240;2023-03-18T09:25:18;100893.0;;;14.94;75.55
50652;BME280;66928;52.086;5.240;2023-03-18T09:28:32;100891.0;;;14.99;75.47
50652;BME280;66928;52.086;5.240;2023-03-18T09:30:09;100889.0;;;14.98;75.34
50652;BME280;66928;52.086;5.240;2023-03-18T09:31:45;100886.0;;;14.98;75.34
50652;BME280;66928;52.086;5.240;2023-03-18T09:34:59;100895.0;;;14.99;75.58
50652;BME280;66928;52.086;5.240;2023-03-18T09:36:35;100895.0;;;14.9;75.39
50652;BME280;66928;52.086;5.240;2023-03-18T09:38:13;100901.0;;;14.88;75.47
50652;BME280;66928;52.086;5.240;2023-03-18T09:41:34;100908.0;;;15.04;74.86
50652;BME280;66928;52.086;5.240;2023-03-18T09:43:31;100909.0;;;14.87;75.3
50652;BME280;66928;52.086;5.240;2023-03-18T09:45:19;100912.0;;;14.91;74.41
50652;BME280;66928;52.086;5.240;2023-03-18T09:47:13;100922.0;;;14.82;74.42
50652;BME280;66928;52.086;5.240;2023-03-18T09:49:05;100920.0;;;14.99;74.45
50652;BME280;66928;52.086;5.240;2023-03-18T09:50:58;100923.0;;;15.04;74.2
50652;BME280;66928;52.086;5.240;2023-03-18T09:52:44;100919.0;;;15.14;73.94
50652;BME280;66928;52.086;5.240;2023-03-18T09:56:13;100914.0;;;14.87;74.27
50652;BME280;66928;52.086;5.240;2023-03-18T09:57:54;100912.0;;;15.01;74.3
50652;BME280;66928;52.086;5.240;2023-03-18T09:59:37;100911.0;;;15.19;73.69
50652;BME280;66928;52.086;5.240;2023-03-18T10:01:18;100911.0;;;15.2;73.3
50652;BME280;66928;52.086;5.240;2023-03-18T10:02:58;100910.0;;;15.08;73.24
50652;BME280;66928;52.086;5.240;2023-03-18T10:06:21;100913.0;;;15.17;73.11
50652;BME280;66928;52.086;5.240;2023-03-18T10:08:01;100913.0;;;15.23;72.61
50652;BME280;66928;52.086;5.240;2023-03-18T10:09:44;100913.0;;;15.25;72.61
50652;BME280;66928;52.086;5.240;2023-03-18T10:11:25;100916.0;;;15.36;72.12
50652;BME280;66928;52.086;5.240;2023-03-18T10:15:01;100917.0;;;15.23;72.23
50652;BME280;66928;52.086;5.240;2023-03-18T10:16:51;100918.0;;;15.45;71.8
50652;BME280;66928;52.086;5.240;2023-03-18T10:18:38;100914.0;;;15.52;71.42
50652;BME280;66928;52.086;5.240;2023-03-18T10:20:19;100914.0;;;15.39;71.86
50652;BME280;66928;52.086;5.240;2023-03-18T10:22:14;100912.0;;;15.4;71.38
50652;BME280;66928;52.086;5.240;2023-03-18T10:24:03;100911.0;;;15.64;71.09
50652;BME280;66928;52.086;5.240;2023-03-18T10:27:40;100905.0;;;15.68;71.27
50652;BME280;66928;52.086;5.240;2023-03-18T10:31:17;100905.0;;;15.69;70.61
50652;BME280;66928;52.086;5.240;2023-03-18T10:33:06;100902.0;;;15.9;69.94
50652;BME280;66928;52.086;5.240;2023-03-18T10:34:56;100901.0;;;15.81;69.49
50652;BME280;66928;52.086;5.240;2023-03-18T10:36:53;100909.0;;;15.97;68.7
50652;BME280;66928;52.086;5.240;2023-03-18T10:38:37;100911.0;;;16.09;68.45
50652;BME280;66928;52.086;5.240;2023-03-18T10:41:57;100907.0;;;16.07;69.0
50652;BME280;66928;52.086;5.240;2023-03-18T10:43:35;100916.0;;;15.84;69.94
50652;BME280;66928;52.086;5.240;2023-03-18T10:45:20;100915.0;;;16.02;69.52
50652;BME280;66928;52.086;5.240;2023-03-18T10:46:58;100915.0;;;16.09;68.83
50652;BME280;66928;52.086;5.240;2023-03-18T10:50:20;100915.0;;;16.23;68.34
50652;BME280;66928;52.086;5.240;2023-03-18T10:52:03;100916.0;;;16.5;67.75
50652;BME280;66928;52.086;5.240;2023-03-18T10:53:44;100912.0;;;16.55;67.33
50652;BME280;66928;52.086;5.240;2023-03-18T10:55:29;100911.0;;;16.63;66.33
50652;BME280;66928;52.086;5.240;2023-03-18T10:58:49;100912.0;;;16.86;65.37
50652;BME280;66928;52.086;5.240;2023-03-18T11:00:28;100909.0;;;16.9;65.22
50652;BME280;66928;52.086;5.240;2023-03-18T11:02:14;100911.0;;;17.0;64.86
50652;BME280;66928;52.086;5.240;2023-03-18T11:03:57;100912.0;;;17.09;64.58
50652;BME280;66928;52.086;5.240;2023-03-18T11:07:15;100913.0;;;17.16;64.59
50652;BME280;66928;52.086;5.240;2023-03-18T11:09:00;100910.0;;;17.25;63.77
50652;BME280;66928;52.086;5.240;2023-03-18T11:10:44;100914.0;;;17.27;63.46
50652;BME280;66928;52.086;5.240;2023-03-18T11:12:23;100911.0;;;17.28;63.31
50652;BME280;66928;52.086;5.240;2023-03-18T11:14:04;100910.0;;;17.37;63.11
50652;BME280;66928;52.086;5.240;2023-03-18T11:17:26;100911.0;;;17.45;62.91
50652;BME280;66928;52.086;5.240;2023-03-18T11:19:13;100912.0;;;17.45;62.83
50652;BME280;66928;52.086;5.240;2023-03-18T11:21:04;100911.0;;;17.47;62.05
50652;BME280;66928;52.086;5.240;2023-03-18T11:22:44;100908.0;;;17.52;61.82
50652;BME280;66928;52.086;5.240;2023-03-18T11:26:07;100903.0;;;17.5;61.92
50652;BME280;66928;52.086;5.240;2023-03-18T11:27:45;100907.0;;;17.52;61.92
50652;BME280;66928;52.086;5.240;2023-03-18T11:29:26;100907.0;;;17.45;62.27
50652;BME280;66928;52.086;5.240;2023-03-18T11:31:04;100913.0;;;17.47;62.18
50652;BME280;66928;52.086;5.240;2023-03-18T11:34:31;100914.0;;;17.56;62.53
50652;BME280;66928;52.086;5.240;2023-03-18T11:36:11;100913.0;;;17.52;62.29
50652;BME280;66928;52.086;5.240;2023-03-18T11:37:51;100913.0;;;17.59;62.07
50652;BME280;66928;52.086;5.240;2023-03-18T11:39:29;100912.0;;;17.62;62.06
50652;BME280;66928;52.086;5.240;2023-03-18T11:42:46;100910.0;;;17.64;62.13
50652;BME280;66928;52.086;5.240;2023-03-18T11:44:26;100912.0;;;17.62;62.52
50652;BME280;66928;52.086;5.240;2023-03-18T11:46:06;100907.0;;;17.61;62.52
50652;BME280;66928;52.086;5.240;2023-03-18T11:47:44;100910.0;;;17.63;62.08
50652;BME280;66928;52.086;5.240;2023-03-18T11:51:11;100910.0;;;17.66;62.36
50652;BME280;66928;52.086;5.240;2023-03-18T11:53:15;100912.0;;;17.61;62.35
50652;BME280;66928;52.086;5.240;2023-03-18T11:55:03;100910.0;;;17.61;62.56
50652;BME280;66928;52.086;5.240;2023-03-18T11:56:57;100909.0;;;17.7;61.93
50652;BME280;66928;52.086;5.240;2023-03-18T11:59:22;100905.0;;;17.63;62.13
50652;BME280;66928;52.086;5.240;2023-03-18T12:01:06;100906.0;;;17.68;62.42
50652;BME280;66928;52.086;5.240;2023-03-18T12:03:04;100903.0;;;17.73;61.45
50652;BME280;66928;52.086;5.240;2023-03-18T12:06:32;100899.0;;;17.62;62.21
50652;BME280;66928;52.086;5.240;2023-03-18T12:10:01;100894.0;;;17.75;61.96
50652;BME280;66928;52.086;5.240;2023-03-18T12:11:55;100893.0;;;17.77;61.36
50652;BME280;66928;52.086;5.240;2023-03-18T12:13:43;100892.0;;;17.7;61.54
50652;BME280;66928;52.086;5.240;2023-03-18T12:15:34;100899.0;;;17.78;61.02
50652;BME280;66928;52.086;5.240;2023-03-18T12:17:21;100903.0;;;17.81;60.08
50652;BME280;66928;52.086;5.240;2023-03-18T12:19:19;100897.0;;;17.89;59.97
50652;BME280;66928;52.086;5.240;2023-03-18T12:21:25;100900.0;;;17.91;59.91
50652;BME280;66928;52.086;5.240;2023-03-18T12:23:27;100902.0;;;17.98;59.07
50652;BME280;66928;52.086;5.240;2023-03-18T12:25:44;100905.0;;;18.0;59.13
50652;BME280;66928;52.086;5.240;2023-03-18T12:27:38;100905.0;;;18.02;59.01
50652;BME280;66928;52.086;5.240;2023-03-18T12:31:49;100906.0;;;18.04;57.92
50652;BME280;66928;52.086;5.240;2023-03-18T12:33:41;100913.0;;;17.88;58.15
50652;BME280;66928;52.086;5.240;2023-03-18T12:37:28;100909.0;;;17.87;57.72
50652;BME280;66928;52.086;5.240;2023-03-18T12:39:41;100907.0;;;17.89;58.2
50652;BME280;66928;52.086;5.240;2023-03-18T12:43:17;100910.0;;;17.73;59.5
50652;BME280;66928;52.086;5.240;2023-03-18T12:45:08;100912.0;;;17.75;59.78
50652;BME280;66928;52.086;5.240;2023-03-18T12:46:49;100910.0;;;17.66;60.51
50652;BME280;66928;52.086;5.240;2023-03-18T12:51:57;100906.0;;;17.62;61.42
50652;BME280;66928;52.086;5.240;2023-03-18T12:53:39;100906.0;;;17.53;61.5
50652;BME280;66928;52.086;5.240;2023-03-18T12:55:20;100909.0;;;17.45;61.11
50652;BME280;66928;52.086;5.240;2023-03-18T12:57:02;100912.0;;;17.41;61.38
50652;BME280;66928;52.086;5.240;2023-03-18T12:58:43;100912.0;;;17.31;61.87
50652;BME280;66928;52.086;5.240;2023-03-18T13:02:18;100909.0;;;17.25;62.35
50652;BME280;66928;52.086;5.240;2023-03-18T13:04:29;100912.0;;;17.29;62.57
50652;BME280;66928;52.086;5.240;2023-03-18T13:06:11;100906.0;;;17.23;63.36
50652;BME280;66928;52.086;5.240;2023-03-18T13:08:03;100905.0;;;17.28;63.7
50652;BME280;66928;52.086;5.240;2023-03-18T13:09:48;100902.0;;;17.12;64.05
50652;BME280;66928;52.086;5.240;2023-03-18T13:11:52;100899.0;;;17.18;63.7
50652;BME280;66928;52.086;5.240;2023-03-18T13:13:51;100896.0;;;17.18;62.29
50652;BME280;66928;52.086;5.240;2023-03-18T13:15:32;100892.0;;;17.05;62.92
50652;BME280;66928;52.086;5.240;2023-03-18T13:18:51;100885.0;;;17.03;63.65
50652;BME280;66928;52.086;5.240;2023-03-18T13:20:33;100882.0;;;17.11;63.13
50652;BME280;66928;52.086;5.240;2023-03-18T13:22:34;100884.0;;;17.04;63.01
50652;BME280;66928;52.086;5.240;2023-03-18T13:24:46;100891.0;;;17.25;61.99
50652;BME280;66928;52.086;5.240;2023-03-18T13:26:55;100890.0;;;17.36;62.26
50652;BME280;66928;52.086;5.240;2023-03-18T13:28:55;100895.0;;;17.5;62.12
50652;BME280;66928;52.086;5.240;2023-03-18T13:32:53;100894.0;;;17.56;61.93
50652;BME280;66928;52.086;5.240;2023-03-18T13:34:46;100895.0;;;17.64;60.64
50652;BME280;66928;52.086;5.240;2023-03-18T13:38:24;100890.0;;;17.7;59.37
50652;BME280;66928;52.086;5.240;2023-03-18T13:40:31;100891.0;;;17.66;59.34
50652;BME280;66928;52.086;5.240;2023-03-18T13:42:19;100890.0;;;17.7;58.73
50652;BME280;66928;52.086;5.240;2023-03-18T13:43:58;100894.0;;;17.81;58.09
50652;BME280;66928;52.086;5.240;2023-03-18T13:45:38;100894.0;;;17.75;58.22
50652;BME280;66928;52.086;5.240;2023-03-18T13:47:18;100895.0;;;17.81;59.11
50652;BME280;66928;52.086;5.240;2023-03-18T13:48:57;100888.0;;;17.8;58.69
50652;BME280;66928;52.086;5.240;2023-03-18T13:52:35;100892.0;;;17.81;59.32
50652;BME280;66928;52.086;5.240;2023-03-18T13:54:15;100890.0;;;17.75;58.91
50652;BME280;66928;52.086;5.240;2023-03-18T13:56:02;100889.0;;;17.86;58.96
50652;BME280;66928;52.086;5.240;2023-03-18T13:57:54;100891.0;;;17.98;58.86
50652;BME280;66928;52.086;5.240;2023-03-18T13:59:47;100884.0;;;18.0;58.31
50652;BME280;66928;52.086;5.240;2023-03-18T14:01:28;100880.0;;;18.04;57.44
50652;BME280;66928;52.086;5.240;2023-03-18T14:04:54;100880.0;;;18.03;57.41
50652;BME280;66928;52.086;5.240;2023-03-18T14:06:45;100881.0;;;18.09;57.52
50652;BME280;66928;52.086;5.240;2023-03-18T14:08:43;100881.0;;;18.0;57.52
50652;BME280;66928;52.086;5.240;2023-03-18T14:10:34;100874.0;;;18.02;58.05
50652;BME280;66928;52.086;5.240;2023-03-18T14:12:20;100877.0;;;18.02;57.96
50652;BME280;66928;52.086;5.240;2023-03-18T14:14:56;100877.0;;;18.03;58.54
50652;BME280;66928;52.086;5.240;2023-03-18T14:16:51;100873.0;;;17.88;58.29
50652;BME280;66928;52.086;5.240;2023-03-18T14:18:32;100872.0;;;17.86;58.56
50652;BME280;66928;52.086;5.240;2023-03-18T14:22:05;100872.0;;;17.93;58.26
50652;BME280;66928;52.086;5.240;2023-03-18T14:23:43;100874.0;;;17.96;57.92
50652;BME280;66928;52.086;5.240;2023-03-18T14:25:39;100872.0;;;17.84;58.0
50652;BME280;66928;52.086;5.240;2023-03-18T14:27:17;100870.0;;;18.0;57.69
50652;BME280;66928;52.086;5.240;2023-03-18T14:28:56;100866.0;;;17.72;57.83
50652;BME280;66928;52.086;5.240;2023-03-18T14:31:09;100870.0;;;17.75;57.96
50652;BME280;66928;52.086;5.240;2023-03-18T14:34:53;100865.0;;;17.87;57.62
50652;BME280;66928;52.086;5.240;2023-03-18T14:37:33;100865.0;;;17.91;56.81
50652;BME280;66928;52.086;5.240;2023-03-18T14:39:31;100855.0;;;17.96;56.35
50652;BME280;66928;52.086;5.240;2023-03-18T14:41:15;100846.0;;;18.03;56.25
50652;BME280;66928;52.086;5.240;2023-03-18T14:44:41;100845.0;;;18.05;56.21
50652;BME280;66928;52.086;5.240;2023-03-18T14:46:22;100843.0;;;17.88;56.28
50652;BME280;66928;52.086;5.240;2023-03-18T14:48:04;100842.0;;;17.91;56.86
50652;BME280;66928;52.086;5.240;2023-03-18T14:49:50;100838.0;;;17.73;57.09
50652;BME280;66928;52.086;5.240;2023-03-18T14:53:11;100832.0;;;17.93;56.89
50652;BME280;66928;52.086;5.240;2023-03-18T14:54:53;100834.0;;;17.86;56.84
50652;BME280;66928;52.086;5.240;2023-03-18T14:56:35;100836.0;;;17.66;57.67
50652;BME280;66928;52.086;5.240;2023-03-18T14:58:15;100837.0;;;17.75;57.69
50652;BME280;66928;52.086;5.240;2023-03-18T15:01:34;100833.0;;;17.73;57.88
50652;BME280;66928;52.086;5.240;2023-03-18T15:03:15;100830.0;;;17.8;57.55
50652;BME280;66928;52.086;5.240;2023-03-18T15:04:57;100831.0;;;17.84;56.92
50652;BME280;66928;52.086;5.240;2023-03-18T15:06:38;100831.0;;;17.86;56.74
50652;BME280;66928;52.086;5.240;2023-03-18T15:09:54;100830.0;;;17.86;57.37
50652;BME280;66928;52.086;5.240;2023-03-18T15:11:37;100830.0;;;17.97;57.49
50652;BME280;66928;52.086;5.240;2023-03-18T15:13:15;100830.0;;;18.07;56.86
50652;BME280;66928;52.086;5.240;2023-03-18T15:14:52;100823.0;;;18.0;57.58
50652;BME280;66928;52.086;5.240;2023-03-18T15:18:16;100822.0;;;18.05;57.67
50652;BME280;66928;52.086;5.240;2023-03-18T15:19:55;100819.0;;;17.91;58.41
50652;BME280;66928;52.086;5.240;2023-03-18T15:21:33;100825.0;;;17.95;58.58
50652;BME280;66928;52.086;5.240;2023-03-18T15:23:12;100827.0;;;18.02;58.88
50652;BME280;66928;52.086;5.240;2023-03-18T15:26:37;100820.0;;;18.11;58.46
50652;BME280;66928;52.086;5.240;2023-03-18T15:29:56;100822.0;;;18.11;57.73
50652;BME280;66928;52.086;5.240;2023-03-18T15:31:38;100823.0;;;18.23;57.15
50652;BME280;66928;52.086;5.240;2023-03-18T15:35:06;100818.0;;;18.29;56.6
50652;BME280;66928;52.086;5.240;2023-03-18T15:36:52;100819.0;;;18.2;55.96
50652;BME280;66928;52.086;5.240;2023-03-18T15:38:29;100819.0;;;18.28;55.79
50652;BME280;66928;52.086;5.240;2023-03-18T15:40:45;100808.0;;;18.18;55.37
50652;BME280;66928;52.086;5.240;2023-03-18T15:42:22;100809.0;;;18.25;54.72
50652;BME280;66928;52.086;5.240;2023-03-18T15:43:59;100805.0;;;18.23;54.64
50652;BME280;66928;52.086;5.240;2023-03-18T15:47:17;100801.0;;;18.31;54.38
50652;BME280;66928;52.086;5.240;2023-03-18T15:49:02;100803.0;;;18.29;54.54
50652;BME280;66928;52.086;5.240;2023-03-18T15:50:50;100801.0;;;18.22;54.59
50652;BME280;66928;52.086;5.240;2023-03-18T15:52:29;100805.0;;;18.23;54.67
50652;BME280;66928;52.086;5.240;2023-03-18T15:55:52;100800.0;;;18.07;54.44
50652;BME280;66928;52.086;5.240;2023-03-18T15:57:32;100802.0;;;18.11;55.05
50652;BME280;66928;52.086;5.240;2023-03-18T15:59:13;100803.0;;;17.98;55.58
50652;BME280;66928;52.086;5.240;2023-03-18T16:00:50;100800.0;;;18.09;57.03
50652;BME280;66928;52.086;5.240;2023-03-18T16:04:06;100801.0;;;18.18;56.08
50652;BME280;66928;52.086;5.240;2023-03-18T16:05:44;100794.0;;;18.0;55.93
50652;BME280;66928;52.086;5.240;2023-03-18T16:07:20;100801.0;;;18.09;56.13
50652;BME280;66928;52.086;5.240;2023-03-18T16:10:33;100801.0;;;18.07;57.06
50652;BME280;66928;52.086;5.240;2023-03-18T16:12:14;100797.0;;;18.06;55.75
50652;BME280;66928;52.086;5.240;2023-03-18T16:13:52;100798.0;;;18.0;55.6
50652;BME280;66928;52.086;5.240;2023-03-18T16:15:28;100803.0;;;17.91;55.32
50652;BME280;66928;52.086;5.240;2023-03-18T16:18:41;100807.0;;;17.98;55.97
50652;BME280;66928;52.086;5.240;2023-03-18T16:20:20;100810.0;;;17.93;56.21
50652;BME280;66928;52.086;5.240;2023-03-18T16:21:58;100809.0;;;17.97;56.59
50652;BME280;66928;52.086;5.240;2023-03-18T16:25:11;100806.0;;;17.96;56.53
50652;BME280;66928;52.086;5.240;2023-03-18T16:26:48;100812.0;;;18.11;55.9
50652;BME280;66928;52.086;5.240;2023-03-18T16:28:26;100808.0;;;18.11;55.33
50652;BME280;66928;52.086;5.240;2023-03-18T16:30:02;100807.0;;;18.11;55.38
50652;BME280;66928;52.086;5.240;2023-03-18T16:33:15;100807.0;;;18.09;54.94
50652;BME280;66928;52.086;5.240;2023-03-18T16:34:52;100805.0;;;18.09;54.74
50652;BME280;66928;52.086;5.240;2023-03-18T16:36:31;100803.0;;;17.89;54.5
50652;BME280;66928;52.086;5.240;2023-03-18T16:39:49;100805.0;;;17.97;54.82
50652;BME280;66928;52.086;5.240;2023-03-18T16:41:25;100798.0;;;18.07;54.38
50652;BME280;66928;52.086;5.240;2023-03-18T16:43:01;100794.0;;;18.03;54.53
50652;BME280;66928;52.086;5.240;2023-03-18T16:44:37;100798.0;;;18.09;54.4
50652;BME280;66928;52.086;5.240;2023-03-18T16:47:50;100805.0;;;18.09;54.26
50652;BME280;66928;52.086;5.240;2023-03-18T16:49:31;100806.0;;;18.07;54.42
50652;BME280;66928;52.086;5.240;2023-03-18T16:51:07;100805.0;;;18.0;54.33
50652;BME280;66928;52.086;5.240;2023-03-18T16:54:23;100807.0;;;18.06;54.34
50652;BME280;66928;52.086;5.240;2023-03-18T16:56:02;100810.0;;;17.97;54.56
50652;BME280;66928;52.086;5.240;2023-03-18T16:57:46;100811.0;;;17.86;54.81
50652;BME280;66928;52.086;5.240;2023-03-18T16:59:28;100810.0;;;17.93;55.45
50652;BME280;66928;52.086;5.240;2023-03-18T17:02:50;100814.0;;;17.96;55.44
50652;BME280;66928;52.086;5.240;2023-03-18T17:04:29;100813.0;;;17.86;55.3
50652;BME280;66928;52.086;5.240;2023-03-18T17:06:07;100819.0;;;17.62;56.14
50652;BME280;66928;52.086;5.240;2023-03-18T17:07:43;100814.0;;;17.59;56.31
50652;BME280;66928;52.086;5.240;2023-03-18T17:10:57;100816.0;;;17.63;56.74
50652;BME280;66928;52.086;5.240;2023-03-18T17:12:36;100814.0;;;17.56;56.79
50652;BME280;66928;52.086;5.240;2023-03-18T17:14:27;100815.0;;;17.75;56.45
50652;BME280;66928;52.086;5.240;2023-03-18T17:16:07;100813.0;;;17.59;56.21
50652;BME280;66928;52.086;5.240;2023-03-18T17:19:27;100811.0;;;17.57;56.47
50652;BME280;66928;52.086;5.240;2023-03-18T17:21:03;100817.0;;;17.57;56.22
50652;BME280;66928;52.086;5.240;2023-03-18T17:22:40;100807.0;;;17.59;55.92
50652;BME280;66928;52.086;5.240;2023-03-18T17:25:54;100807.0;;;17.41;56.13
50652;BME280;66928;52.086;5.240;2023-03-18T17:27:32;100817.0;;;17.34;56.26
50652;BME280;66928;52.086;5.240;2023-03-18T17:29:17;100807.0;;;17.18;56.74
50652;BME280;66928;52.086;5.240;2023-03-18T17:30:57;100805.0;;;17.0;57.32
50652;BME280;66928;52.086;5.240;2023-03-18T17:34:12;100809.0;;;16.86;57.76
50652;BME280;66928;52.086;5.240;2023-03-18T17:35:48;100808.0;;;16.72;58.08
50652;BME280;66928;52.086;5.240;2023-03-18T17:37:25;100809.0;;;16.71;58.03
50652;BME280;66928;52.086;5.240;2023-03-18T17:39:01;100805.0;;;16.55;58.56
50652;BME280;66928;52.086;5.240;2023-03-18T17:42:25;100810.0;;;16.32;59.11
50652;BME280;66928;52.086;5.240;2023-03-18T17:44:21;100813.0;;;16.38;59.01
50652;BME280;66928;52.086;5.240;2023-03-18T17:45:59;100812.0;;;16.39;59.04
50652;BME280;66928;52.086;5.240;2023-03-18T17:47:36;100809.0;;;16.39;59.08
50652;BME280;66928;52.086;5.240;2023-03-18T17:50:49;100813.0;;;16.22;59.56
50652;BME280;66928;52.086;5.240;2023-03-18T17:52:27;100812.0;;;16.05;60.27
50652;BME280;66928;52.086;5.240;2023-03-18T17:54:03;100817.0;;;15.93;60.88
50652;BME280;66928;52.086;5.240;2023-03-18T17:57:16;100818.0;;;15.94;60.84